Eastmont, Washington
Current Conditions -  °F | °C
As of 7:53 PM on Sunday 23 Nov 2014 (Local Time) from KPAE Reporting Station
Few Clouds Few Clouds  
Wind Chill: 38°   Ceiling: Unl
Heat Index: 42°   Visibility: 10mi
Dew Point: 37°   Wind: 6mph
Humidity: 82%   Direction: 180°S
Pressure: 30.27"   Gusts: NA
Location:  47.9027°N, 122.261°W
Report Text: KPAE 240353Z 18005KT 10SM FEW039 06/03 A3027 RMK AO2 SLP254 T00560028 $
Loading
Personal Weather Stations






























Interactive Weather Map New forecast layout! Learn more

10-Day Weather Forecast

Advertisements
Track Severe Weather on mobile